This is the latest recevied weather packets stored in our database for station/object DF9PM-13. If no packets are shown the sender has not sent any weather packets the latest 10 day(s).
| Time | Temp. | Humidity | Pressure | Rain* | Wind** | Luminosity | Snow |
|---|---|---|---|---|---|---|---|
| 1777919142 | 17.78° C | 88% | 1012.6 hPa | - | - | - | - |
| 1777918842 | 18.33° C | 88% | 1012.6 hPa | - | - | - | - |
| 1777918542 | 18.33° C | 88% | 1012.6 hPa | - | - | - | - |
| 1777918242 | 17.78° C | 92% | 1012.5 hPa | - | - | - | - |
| 1777917945 | 17.78° C | 92% | 1012.5 hPa | - | - | - | - |
| 1777917642 | 17.78° C | 91% | 1012.6 hPa | - | - | - | - |
| 1777917342 | 18.33° C | 88% | 1012.6 hPa | - | - | - | - |
| 1777917042 | 17.78° C | 88% | 1012.6 hPa | - | - | - | - |
| 1777916742 | 18.33° C | 82% | 1012.6 hPa | - | - | - | - |
| 1777916442 | 17.78° C | 85% | 1012.6 hPa | - | - | - | - |
| 1777916142 | 18.33° C | 82% | 1012.6 hPa | - | - | - | - |
| 1777915842 | 18.33° C | 80% | 1012.6 hPa | - | - | - | - |
| 1777915542 | 18.33° C | 82% | 1012.6 hPa | - | - | - | - |
| 1777915241 | 18.89° C | 78% | 1012.5 hPa | - | - | - | - |
| 1777914941 | 18.33° C | 77% | 1012.4 hPa | - | - | - | - |
| 1777914642 | 18.89° C | 72% | 1012.4 hPa | - | - | - | - |
| 1777914342 | 18.89° C | 71% | 1012.4 hPa | - | - | - | - |
| 1777914042 | 18.89° C | 69% | 1012.4 hPa | - | - | - | - |
| 1777913741 | 18.89° C | 68% | 1012.5 hPa | - | - | - | - |
| 1777913441 | 19.44° C | 66% | 1012.5 hPa | - | - | - | - |
| 1777913141 | 19.44° C | 66% | 1012.4 hPa | - | - | - | - |
| 1777912842 | 19.44° C | 67% | 1012.5 hPa | - | - | - | - |
| 1777912541 | 19.44° C | 67% | 1012.5 hPa | - | - | - | - |
| 1777912241 | 19.44° C | 68% | 1012.6 hPa | - | - | - | - |
| 1777911941 | 19.44° C | 67% | 1012.6 hPa | - | - | - | - |
* Rain since midnight (hover to see other rain measurements)
** Current wind speed in m/s (hover to see current wind gust speed)